Hocking — AEPB — position and weather

sailwx.info

Track history (hours):
 
Tides and Currents Weather Stations Pressure Air Temp Water Temp Dewpoint Dewpoint Depression Visibility Wind Speed Wind Dir Waves Ship Positions

Hocking

Last reported at 2017-Nov-16 19:22 UTC. Time now 2017-Nov-18 11:47 UTC.
Position N 40°40' W 074°04'.

Length 21 m; draft 1.8 m.

Type: Other ship. MMSI: 366999414.

Date/timePositionNaut miles runAvg speedWind from/ knotsBaromVisibWave heightAir tempDewpointWater temp
2017-Nov-16 19:22N 40°40' W 074°04'1 1.6
2017-Nov-16 19:00N 40°40' W 074°05'2 4.7
2017-Nov-16 18:30N 40°42' W 074°02'3 1.3
2017-Nov-16 16:15N 40°44' W 074°01'1 6.1
2017-Nov-16 16:00N 40°46' W 074°01'4 7.4
2017-Nov-16 15:30N 40°49' W 073°58'3 6.8
2017-Nov-16 15:00N 40°52' W 073°57'2 2.9
2017-Nov-16 14:29N 40°51' W 073°57'3 7.2
2017-Nov-16 14:00N 40°48' W 073°59'611.4
2017-Nov-16 13:31N 40°42' W 074°02'3 0.2
2017-Nov-15 19:08N 40°40' W 074°04'1 4.3
2017-Nov-15 19:00N 40°40' W 074°05'2 4.6
2017-Nov-15 18:30N 40°38' W 074°03'4 7.1
2017-Nov-15 17:59N 40°35' W 074°02'2 4.8
2017-Nov-15 17:30N 40°33' W 074°03'4 1.9
2017-Nov-15 15:27N 40°29' W 074°04'3 6.1
2017-Nov-15 14:59N 40°28' W 074°01'0 0.5
2017-Nov-15 14:30N 40°28' W 074°01'2 4.0
2017-Nov-15 14:00N 40°29' W 074°02'610.8
2017-Nov-15 13:29N 40°35' W 074°03'510.9
2017-Nov-15 13:00N 40°40' W 074°03'  
2017-Nov-09 18:06N 40°40' W 074°03'112.2
2017-Nov-09 18:00N 40°39' W 074°02'1 1.7
2017-Nov-09 17:30N 40°38' W 074°02'0 0.4
2017-Nov-09 17:00N 40°39' W 074°03'2 2.4
2017-Nov-09 16:11N 40°40' W 074°01'1 6.7
2017-Nov-09 16:00N 40°41' W 074°02'2 3.5
2017-Nov-09 15:30N 40°43' W 074°02'0 0.8
2017-Nov-09 15:00N 40°43' W 074°02'2 4.8
2017-Nov-09 14:30N 40°45' W 074°01'3 6.9
2017-Nov-09 14:00N 40°42' W 074°02'2 0.1
2017-Nov-08 18:54N 40°41' W 074°04'3 7.6
2017-Nov-08 18:30N 40°43' W 074°02'3 0.1
2017-Nov-07 19:53N 40°41' W 074°04'3 7.4
2017-Nov-07 19:30N 40°40' W 074°01'1 1.5
2017-Nov-07 19:00N 40°40' W 074°00'0 0.0
2017-Nov-07 18:30N 40°40' W 074°00'0 0.1
2017-Nov-07 18:00N 40°40' W 074°00'4 7.0
2017-Nov-07 17:30N 40°37' W 074°03'8 2.9
2017-Nov-07 14:40N 40°34' W 074°13'2 7.8
2017-Nov-07 14:26N 40°36' W 074°12'3 7.3
2017-Nov-07 14:00N 40°39' W 074°11'510.0
2017-Nov-07 13:30N 40°39' W 074°04'  
Track history (hours):
 
Tides and Currents Weather Stations Pressure Air Temp Water Temp Dewpoint Dewpoint Depression Visibility Wind Speed Wind Dir Waves Ship Positions

Hocking

Last reported at 2017-Nov-16 19:22 UTC. Time now 2017-Nov-18 11:47 UTC.
Position N 40°40' W 074°04'.

Length 21 m; draft 1.8 m.

Type: Other ship. MMSI: 366999414.

Date/timePositionNaut miles runAvg speedWind from/ knotsBaromVisibWave heightAir tempDewpointWater temp
2017-Nov-16 19:22N 40°40' W 074°04'1 1.6
2017-Nov-16 19:00N 40°40' W 074°05'2 4.7
2017-Nov-16 18:30N 40°42' W 074°02'3 1.3
2017-Nov-16 16:15N 40°44' W 074°01'1 6.1
2017-Nov-16 16:00N 40°46' W 074°01'4 7.4
2017-Nov-16 15:30N 40°49' W 073°58'3 6.8
2017-Nov-16 15:00N 40°52' W 073°57'2 2.9
2017-Nov-16 14:29N 40°51' W 073°57'3 7.2
2017-Nov-16 14:00N 40°48' W 073°59'611.4
2017-Nov-16 13:31N 40°42' W 074°02'3 0.2
2017-Nov-15 19:08N 40°40' W 074°04'1 4.3
2017-Nov-15 19:00N 40°40' W 074°05'2 4.6
2017-Nov-15 18:30N 40°38' W 074°03'4 7.1
2017-Nov-15 17:59N 40°35' W 074°02'2 4.8
2017-Nov-15 17:30N 40°33' W 074°03'4 1.9
2017-Nov-15 15:27N 40°29' W 074°04'3 6.1
2017-Nov-15 14:59N 40°28' W 074°01'0 0.5
2017-Nov-15 14:30N 40°28' W 074°01'2 4.0
2017-Nov-15 14:00N 40°29' W 074°02'610.8
2017-Nov-15 13:29N 40°35' W 074°03'510.9
2017-Nov-15 13:00N 40°40' W 074°03'  
2017-Nov-09 18:06N 40°40' W 074°03'112.2
2017-Nov-09 18:00N 40°39' W 074°02'1 1.7
2017-Nov-09 17:30N 40°38' W 074°02'0 0.4
2017-Nov-09 17:00N 40°39' W 074°03'2 2.4
2017-Nov-09 16:11N 40°40' W 074°01'1 6.7
2017-Nov-09 16:00N 40°41' W 074°02'2 3.5
2017-Nov-09 15:30N 40°43' W 074°02'0 0.8
2017-Nov-09 15:00N 40°43' W 074°02'2 4.8
2017-Nov-09 14:30N 40°45' W 074°01'3 6.9
2017-Nov-09 14:00N 40°42' W 074°02'2 0.1
2017-Nov-08 18:54N 40°41' W 074°04'3 7.6
2017-Nov-08 18:30N 40°43' W 074°02'3 0.1
2017-Nov-07 19:53N 40°41' W 074°04'3 7.4
2017-Nov-07 19:30N 40°40' W 074°01'1 1.5
2017-Nov-07 19:00N 40°40' W 074°00'0 0.0
2017-Nov-07 18:30N 40°40' W 074°00'0 0.1
2017-Nov-07 18:00N 40°40' W 074°00'4 7.0
2017-Nov-07 17:30N 40°37' W 074°03'8 2.9
2017-Nov-07 14:40N 40°34' W 074°13'2 7.8
2017-Nov-07 14:26N 40°36' W 074°12'3 7.3
2017-Nov-07 14:00N 40°39' W 074°11'510.0
2017-Nov-07 13:30N 40°39' W 074°04'  

Dump ship's entire track history